2AK3 weather

Five Finger CG Heliport
Five Finger, Alaska, United States

Public forecast

Using degrees Fahrenheit for public forecast. Weather courtesy of forecast.io.

METAR (pilot weather report)

Closest report is Kake Airport, 20.6 nm (38.2 km) SSW. Retrieved 2019/09/18 00:56 UTC (53 minutes ago):

PAFE 180056Z AUTO 28004KT 10SM CLR 15/09 A2981 RMK AO2 SLP106 T01500089

TAF (pilot weather forecast)

Forecast is more than 12 hours old.

Closest forecast is Petersburg James A Johnson Airport, 35.9 nm (66.6 km) SE. Retrieved 2019/09/17 00:30 UTC (1 day ago):

TAF PAPG 172328Z 1800/1824 08005KT P6SM SCT035 FM181400 VRB03KT 3SM BR SCT006 BKN080 TEMPO 1814/1817 1SM BR BKN002 FM181900 VRB03KT P6SM -RA SCT009 BKN060 FM182200 VRB03KT 5SM -RA SCT009 BKN030 AMD LTD TO CLD VIS AND WIND 1806/1815